Time;durP1;ratioP1;P1;durP2;ratioP2;P2;SDS_P1;SDS_P2;PMS_P1;PMS_P2;Temp;Humidity;BMP_temperature;BMP_pressure;BME280_temperature;BME280_humidity;BME280_pressure;Samples;Min_cycle;Max_cycle;Signal;HPM_P1;HPM_P2
2022/06/22 00:01:26;;;;;;;15.63;4.13;;;21.00;99.90;;;;;;5045345;28;20204;-55
2022/06/22 00:03:56;;;;;;;11.27;3.63;;;20.90;99.90;;;;;;5047264;28;20551;-56
2022/06/22 00:06:29;;;;;;;9.97;2.73;;;20.90;99.90;;;;;;5044294;28;20201;-56
2022/06/22 00:08:56;;;;;;;10.17;3.73;;;20.80;99.90;;;;;;5051757;28;20214;-55
2022/06/22 00:11:25;;;;;;;12.17;4.93;;;20.80;99.90;;;;;;5050889;28;20507;-55
2022/06/22 00:13:56;;;;;;;8.63;3.43;;;20.80;99.90;;;;;;5049016;28;20868;-56
2022/06/22 00:16:29;;;;;;;13.60;4.53;;;20.80;99.90;;;;;;5050878;28;20202;-56
2022/06/22 00:18:57;;;;;;;13.60;4.27;;;20.80;99.90;;;;;;5045206;28;20703;-54
2022/06/22 00:21:28;;;;;;;10.77;3.57;;;20.80;99.90;;;;;;5037994;28;20195;-54
2022/06/22 00:23:58;;;;;;;9.13;3.67;;;20.80;99.90;;;;;;5045113;28;20202;-54
2022/06/22 00:26:32;;;;;;;13.87;3.77;;;20.80;99.90;;;;;;5049193;28;20201;-54
2022/06/22 00:29:20;;;;;;;8.57;3.10;;;20.70;99.90;;;;;;5046322;28;20217;-54
2022/06/22 00:32:13;;;;;;;10.53;3.40;;;20.70;99.90;;;;;;5031283;28;20827;-54
2022/06/22 00:34:40;;;;;;;7.00;3.10;;;20.70;99.90;;;;;;5039543;28;20284;-54
2022/06/22 00:37:15;;;;;;;13.33;3.73;;;20.60;99.90;;;;;;5046570;28;20257;-55
2022/06/22 00:39:44;;;;;;;9.70;3.20;;;20.60;99.90;;;;;;5047039;28;20279;-55
2022/06/22 00:42:27;;;;;;;9.47;3.27;;;20.50;99.90;;;;;;5044624;28;20205;-55
2022/06/22 00:45:00;;;;;;;9.03;4.10;;;20.60;99.90;;;;;;5041354;28;20255;-55
2022/06/22 00:47:32;;;;;;;15.50;3.83;;;20.60;99.90;;;;;;5046546;28;20259;-54
2022/06/22 00:50:06;;;;;;;12.67;3.07;;;20.60;99.90;;;;;;5048969;28;20877;-54
2022/06/22 00:52:39;;;;;;;14.93;2.90;;;20.60;99.90;;;;;;5042061;28;20202;-55
2022/06/22 00:55:23;;;;;;;8.17;3.20;;;20.60;99.90;;;;;;5041952;28;20239;-54
2022/06/22 00:58:01;;;;;;;11.97;3.67;;;20.60;99.90;;;;;;5049824;28;20247;-55
2022/06/22 01:00:31;;;;;;;13.63;2.97;;;20.60;99.90;;;;;;5039211;28;20678;-54
2022/06/22 01:03:05;;;;;;;9.50;3.60;;;20.70;99.90;;;;;;5039240;28;20202;-54
2022/06/22 01:05:37;;;;;;;13.53;3.03;;;20.60;99.90;;;;;;5031243;28;20618;-54
2022/06/22 01:08:12;;;;;;;5.40;2.50;;;20.70;99.90;;;;;;5031072;28;20673;-54
2022/06/22 01:10:44;;;;;;;13.67;3.67;;;20.60;99.90;;;;;;5044433;28;20667;-54
2022/06/22 01:13:16;;;;;;;9.57;3.10;;;20.60;99.90;;;;;;5042764;28;20197;-54
2022/06/22 01:15:52;;;;;;;10.07;4.53;;;20.50;99.90;;;;;;5049030;28;20251;-54
2022/06/22 01:18:25;;;;;;;9.77;2.80;;;20.50;99.90;;;;;;5039022;28;20275;-54
2022/06/22 01:20:59;;;;;;;12.13;3.13;;;20.50;99.90;;;;;;5045586;28;20555;-54
2022/06/22 01:24:13;;;;;;;14.93;3.17;;;20.50;99.90;;;;;;5045994;28;20277;-54
2022/06/22 01:27:20;;;;;;;9.03;3.50;;;20.50;99.90;;;;;;5030997;28;20202;-54
2022/06/22 01:29:50;;;;;;;12.10;3.20;;;20.50;99.90;;;;;;5042615;28;20248;-54
2022/06/22 01:32:22;;;;;;;10.10;2.57;;;20.50;99.90;;;;;;5037293;28;20276;-55
2022/06/22 01:34:51;;;;;;;6.37;3.10;;;20.50;99.90;;;;;;5051623;28;20620;-54
2022/06/22 01:37:21;;;;;;;10.93;2.70;;;20.50;99.90;;;;;;5049741;28;20202;-54
2022/06/22 01:39:48;;;;;;;9.80;2.47;;;20.60;99.90;;;;;;5046766;28;20217;-54
2022/06/22 01:42:21;;;;;;;12.83;3.13;;;20.60;99.90;;;;;;5047654;28;20259;-54
2022/06/22 01:44:56;;;;;;;15.20;3.83;;;20.60;99.90;;;;;;5049736;28;20232;-54
2022/06/22 01:47:31;;;;;;;12.73;2.90;;;20.60;99.90;;;;;;5042193;28;20199;-55
2022/06/22 01:50:12;;;;;;;9.97;3.50;;;20.60;99.90;;;;;;5039189;28;20226;-54
2022/06/22 01:52:48;;;;;;;13.63;3.07;;;20.60;99.90;;;;;;5049046;28;20283;-54
2022/06/22 01:55:25;;;;;;;9.23;4.03;;;20.60;99.90;;;;;;5043598;28;20208;-55
2022/06/22 01:58:00;;;;;;;16.80;3.83;;;20.60;99.90;;;;;;5041181;28;20213;-55
2022/06/22 02:00:27;;;;;;;10.50;3.73;;;20.60;99.90;;;;;;5035889;28;20753;-54
2022/06/22 02:03:00;;;;;;;17.03;3.17;;;20.50;99.90;;;;;;5046528;28;20210;-54
2022/06/22 02:05:31;;;;;;;10.23;2.77;;;20.50;99.90;;;;;;5049944;28;20202;-55
2022/06/22 02:08:04;;;;;;;11.40;3.30;;;20.50;99.90;;;;;;5040175;28;20230;-54
2022/06/22 02:10:43;;;;;;;11.50;3.27;;;20.40;99.90;;;;;;5039021;28;20207;-54
2022/06/22 02:13:29;;;;;;;10.10;3.50;;;20.50;99.90;;;;;;5041121;28;20288;-55
2022/06/22 02:16:04;;;;;;;8.53;3.17;;;20.40;99.90;;;;;;5048819;28;20214;-54
2022/06/22 02:18:38;;;;;;;8.23;2.63;;;20.40;99.90;;;;;;5041792;28;20221;-54
2022/06/22 02:21:18;;;;;;;10.70;2.97;;;20.40;99.90;;;;;;5046762;28;20226;-54
2022/06/22 02:23:48;;;;;;;8.93;3.23;;;20.40;99.90;;;;;;5051684;28;20275;-54
2022/06/22 02:26:21;;;;;;;10.63;2.80;;;20.40;99.90;;;;;;5053842;28;20552;-54
2022/06/22 02:28:50;;;;;;;10.63;3.00;;;20.40;99.90;;;;;;5053720;28;20275;-55
2022/06/22 02:31:20;;;;;;;7.43;2.67;;;20.40;99.90;;;;;;5053743;28;20202;-54
2022/06/22 02:33:50;;;;;;;7.83;3.70;;;20.40;99.90;;;;;;5044736;28;20202;-54
2022/06/22 02:36:18;;;;;;;16.03;4.27;;;20.50;99.90;;;;;;5052760;28;20280;-54
2022/06/22 02:38:49;;;;;;;13.37;3.97;;;20.50;99.90;;;;;;5047479;28;20295;-54
2022/06/22 02:46:53;;;;;;;11.90;3.70;;;20.60;99.90;;;;;;5052976;28;20303;-54
2022/06/22 02:49:26;;;;;;;13.17;3.63;;;20.60;99.90;;;;;;5050718;28;20222;-55
2022/06/22 02:51:55;;;;;;;13.27;3.30;;;20.50;99.90;;;;;;5046743;28;20224;-54
2022/06/22 02:54:29;;;;;;;9.00;3.47;;;20.50;99.90;;;;;;5041915;28;20297;-55
2022/06/22 02:57:10;;;;;;;7.77;4.03;;;20.50;99.90;;;;;;5033352;28;20264;-55
2022/06/22 02:59:39;;;;;;;7.70;3.03;;;20.40;99.90;;;;;;5044387;28;20280;-56
2022/06/22 03:02:07;;;;;;;12.53;3.00;;;20.40;99.90;;;;;;5048717;28;20194;-55
2022/06/22 03:04:34;;;;;;;12.43;3.07;;;20.40;99.90;;;;;;5044929;28;20252;-55
2022/06/22 03:07:02;;;;;;;11.53;2.87;;;20.40;99.90;;;;;;5033314;28;20625;-55
2022/06/22 03:09:30;;;;;;;8.13;3.10;;;20.40;99.90;;;;;;5037081;28;20221;-55
2022/06/22 03:12:00;;;;;;;10.77;2.67;;;20.40;99.90;;;;;;5052281;28;20206;-55
2022/06/22 03:14:31;;;;;;;13.07;3.70;;;20.50;99.90;;;;;;5044870;28;20198;-55
2022/06/22 03:17:02;;;;;;;11.27;3.13;;;20.50;99.90;;;;;;5053108;28;20206;-54
2022/06/22 03:19:36;;;;;;;7.50;3.97;;;20.60;99.90;;;;;;5050356;28;20222;-55
2022/06/22 03:22:03;;;;;;;10.07;4.13;;;20.60;99.90;;;;;;5052633;28;20563;-55
2022/06/22 03:24:39;;;;;;;12.93;3.40;;;20.60;99.90;;;;;;5053131;28;20206;-55
2022/06/22 03:27:14;;;;;;;7.47;3.77;;;20.60;99.90;;;;;;5051421;28;20296;-55
2022/06/22 03:29:47;;;;;;;11.57;3.63;;;20.50;99.90;;;;;;5042888;28;20240;-55
2022/06/22 03:32:22;;;;;;;8.97;3.03;;;20.50;99.90;;;;;;5046978;28;20664;-55
2022/06/22 03:34:52;;;;;;;8.20;2.73;;;20.50;99.90;;;;;;5046078;28;20205;-55
2022/06/22 03:37:25;;;;;;;6.73;2.10;;;20.50;99.90;;;;;;5043319;28;20207;-55
2022/06/22 03:39:59;;;;;;;5.17;2.40;;;20.50;99.90;;;;;;5039977;28;20309;-54
2022/06/22 03:42:33;;;;;;;9.73;2.87;;;20.50;99.90;;;;;;5050697;28;20618;-55
2022/06/22 03:45:05;;;;;;;6.27;2.00;;;20.50;99.90;;;;;;5049055;28;20214;-55
2022/06/22 03:47:39;;;;;;;10.30;3.03;;;20.50;99.90;;;;;;5045276;28;20224;-55
2022/06/22 03:50:14;;;;;;;7.27;3.30;;;20.50;99.90;;;;;;5048664;28;20758;-55
2022/06/22 03:52:49;;;;;;;9.60;3.07;;;20.50;99.90;;;;;;5043380;28;20198;-55
2022/06/22 03:55:21;;;;;;;9.47;3.73;;;20.50;99.90;;;;;;5040455;28;20201;-55
2022/06/22 03:57:55;;;;;;;9.97;3.40;;;20.50;99.90;;;;;;5046826;28;20281;-55
2022/06/22 04:00:24;;;;;;;9.87;2.70;;;20.60;99.90;;;;;;5044147;28;20225;-55
2022/06/22 04:02:53;;;;;;;8.57;2.90;;;20.60;99.90;;;;;;5031603;28;20210;-54
2022/06/22 04:05:24;;;;;;;19.30;5.03;;;20.70;99.90;;;;;;5044638;28;20205;-54
2022/06/22 04:07:53;;;;;;;8.60;3.57;;;20.70;99.90;;;;;;5043614;28;20202;-55
2022/06/22 04:10:34;;;;;;;9.30;3.23;;;20.70;99.90;;;;;;5049450;28;20230;-55
2022/06/22 04:13:03;;;;;;;10.07;3.47;;;20.70;99.90;;;;;;5043206;28;20284;-55
2022/06/22 04:15:35;;;;;;;14.50;3.90;;;20.70;99.90;;;;;;5047406;28;20602;-55
2022/06/22 04:18:09;;;;;;;10.63;4.13;;;20.80;99.90;;;;;;5048714;28;20281;-55
2022/06/22 04:20:51;;;;;;;9.43;2.73;;;20.80;99.90;;;;;;5049482;28;20263;-55
2022/06/22 04:23:26;;;;;;;11.97;2.63;;;20.80;99.90;;;;;;5040801;28;20267;-56
2022/06/22 04:25:56;;;;;;;7.17;3.13;;;20.80;99.90;;;;;;5044788;28;20722;-55
2022/06/22 04:28:29;;;;;;;16.83;4.00;;;20.90;99.90;;;;;;5048140;28;20594;-55
2022/06/22 04:30:58;;;;;;;13.83;3.73;;;20.90;99.90;;;;;;5044444;28;20240;-55
2022/06/22 04:33:33;;;;;;;8.47;3.17;;;20.90;99.90;;;;;;5050008;28;20280;-55
2022/06/22 04:36:05;;;;;;;11.27;3.10;;;20.90;99.90;;;;;;5046985;28;20201;-55
2022/06/22 04:38:38;;;;;;;11.63;3.00;;;20.80;99.90;;;;;;5047992;28;20222;-55
2022/06/22 04:41:20;;;;;;;19.63;8.73;;;20.90;99.90;;;;;;5047735;28;20225;-55
2022/06/22 04:43:47;;;;;;;10.97;4.50;;;20.90;99.90;;;;;;5048075;28;20263;-55
2022/06/22 04:46:21;;;;;;;15.37;3.80;;;20.90;99.90;;;;;;5041632;28;20198;-55
2022/06/22 04:48:53;;;;;;;9.77;3.00;;;20.90;99.90;;;;;;5046139;28;20210;-55
2022/06/22 04:51:24;;;;;;;7.33;3.17;;;20.90;99.90;;;;;;5046322;28;20302;-55
2022/06/22 04:53:56;;;;;;;11.17;3.20;;;20.90;99.90;;;;;;5044684;28;20252;-55
2022/06/22 04:56:29;;;;;;;14.27;4.20;;;21.00;99.90;;;;;;5044706;28;20209;-55
2022/06/22 04:58:58;;;;;;;12.60;3.13;;;21.00;99.90;;;;;;5046328;28;20226;-55
2022/06/22 05:01:27;;;;;;;6.17;2.87;;;21.00;99.90;;;;;;5048123;28;20213;-55
2022/06/22 05:03:58;;;;;;;12.93;3.87;;;21.10;99.90;;;;;;5049505;28;20202;-55
2022/06/22 05:06:31;;;;;;;15.97;5.07;;;21.10;99.90;;;;;;5049681;28;20198;-55
2022/06/22 05:09:02;;;;;;;10.83;2.97;;;21.10;99.90;;;;;;5046974;28;20251;-55
2022/06/22 05:25:19;;;;;;;8.53;3.37;;;21.20;99.90;;;;;;5013149;28;20193;-49
2022/06/22 05:27:53;;;;;;;9.43;4.20;;;21.20;99.90;;;;;;5009014;28;20207;-49
2022/06/22 05:30:21;;;;;;;14.63;3.60;;;21.20;99.90;;;;;;5006882;28;20214;-49
2022/06/22 05:32:52;;;;;;;8.50;3.63;;;21.30;99.90;;;;;;5005839;28;20227;-49
2022/06/22 05:35:24;;;;;;;9.27;3.33;;;21.40;99.90;;;;;;5003227;28;20195;-49
2022/06/22 05:37:55;;;;;;;12.43;4.60;;;21.40;99.90;;;;;;4998985;28;20223;-49
2022/06/22 05:40:27;;;;;;;10.07;3.57;;;21.40;99.90;;;;;;5005336;28;20319;-49
2022/06/22 05:42:56;;;;;;;8.93;3.63;;;21.40;99.90;;;;;;5000367;28;20203;-49
2022/06/22 05:45:27;;;;;;;12.53;3.57;;;21.40;99.90;;;;;;5006903;28;20200;-49
2022/06/22 05:47:56;;;;;;;10.20;4.10;;;21.40;99.90;;;;;;5005403;28;20207;-49
2022/06/22 05:50:34;;;;;;;10.80;3.90;;;21.50;99.90;;;;;;4999793;28;20636;-49
2022/06/22 05:53:09;;;;;;;11.87;4.80;;;21.50;99.90;;;;;;4997664;28;20208;-49
2022/06/22 05:55:47;;;;;;;13.53;4.03;;;21.50;99.90;;;;;;5009353;28;20203;-49
2022/06/22 05:58:21;;;;;;;6.67;3.10;;;21.50;99.90;;;;;;5006388;28;20231;-49
2022/06/22 06:00:50;;;;;;;10.60;4.77;;;21.70;99.90;;;;;;5007730;28;20348;-49
2022/06/22 06:03:34;;;;;;;9.30;3.73;;;21.80;99.90;;;;;;5008890;28;20226;-49
2022/06/22 06:06:06;;;;;;;17.37;4.13;;;22.00;99.90;;;;;;5008527;28;20203;-49
2022/06/22 06:08:40;;;;;;;6.57;4.27;;;22.20;99.90;;;;;;5008797;28;20211;-49
2022/06/22 06:11:13;;;;;;;11.20;5.83;;;22.30;99.90;;;;;;5004147;28;20281;-49
2022/06/22 06:13:43;;;;;;;12.80;5.03;;;22.10;99.90;;;;;;5007355;28;20207;-49
2022/06/22 06:16:16;;;;;;;16.10;5.13;;;22.00;99.90;;;;;;5010406;28;20277;-49
2022/06/22 06:18:45;;;;;;;10.10;4.20;;;22.10;99.90;;;;;;5010770;28;20230;-49
2022/06/22 06:21:15;;;;;;;9.53;4.17;;;22.10;99.90;;;;;;4998951;28;20207;-50
2022/06/22 06:23:46;;;;;;;8.77;5.03;;;22.20;99.90;;;;;;5010760;28;20277;-49
2022/06/22 06:29:19;;;;;;;9.83;5.63;;;23.00;99.90;;;;;;5003507;28;20218;-49
2022/06/22 06:31:58;;;;;;;8.80;5.23;;;23.80;99.90;;;;;;5001243;28;20716;-49
2022/06/22 06:34:30;;;;;;;10.83;5.07;;;24.10;99.90;;;;;;5007926;28;20203;-49
2022/06/22 06:37:02;;;;;;;5.37;4.67;;;24.60;99.90;;;;;;5011915;28;20203;-50
2022/06/22 06:39:33;;;;;;;14.57;4.87;;;24.90;99.90;;;;;;5012022;28;20312;-49
2022/06/22 06:42:13;;;;;;;10.47;5.40;;;25.00;99.90;;;;;;5017726;28;20207;-49
2022/06/22 06:44:41;;;;;;;9.07;4.97;;;25.30;99.90;;;;;;4997882;28;20733;-49
2022/06/22 06:47:15;;;;;;;7.20;6.07;;;25.30;99.90;;;;;;4995809;28;20203;-49
2022/06/22 06:49:47;;;;;;;9.33;7.30;;;25.50;99.90;;;;;;4994476;28;20266;-50
2022/06/22 06:52:26;;;;;;;11.20;5.40;;;25.30;99.90;;;;;;5008153;28;20203;-50
2022/06/22 06:54:59;;;;;;;9.67;6.00;;;25.20;99.90;;;;;;5001932;28;20231;-50
2022/06/22 06:57:29;;;;;;;12.23;5.60;;;25.00;99.90;;;;;;5008360;28;20206;-50
2022/06/22 07:00:00;;;;;;;9.60;4.80;;;24.70;99.90;;;;;;5012736;28;20223;-50
2022/06/22 07:02:31;;;;;;;11.83;5.60;;;24.40;99.90;;;;;;5012610;28;20759;-49
2022/06/22 07:05:00;;;;;;;8.20;5.47;;;24.20;99.90;;;;;;5013089;28;20195;-49
2022/06/22 07:07:38;;;;;;;8.97;5.00;;;24.10;99.90;;;;;;5012759;28;20239;-49
2022/06/22 07:10:12;;;;;;;14.37;5.83;;;24.00;99.90;;;;;;5012544;28;20214;-49
2022/06/22 07:12:46;;;;;;;9.43;5.47;;;24.00;99.90;;;;;;5003072;28;20744;-49
2022/06/22 07:15:18;;;;;;;11.60;6.00;;;23.90;99.90;;;;;;5000752;28;20937;-50
2022/06/22 07:17:47;;;;;;;9.27;6.33;;;23.90;99.90;;;;;;4994123;28;20200;-50
2022/06/22 07:20:21;;;;;;;6.67;6.10;;;23.60;99.90;;;;;;5011722;28;20362;-49
2022/06/22 07:22:53;;;;;;;8.73;5.53;;;23.50;99.90;;;;;;5011875;28;20257;-50
2022/06/22 07:25:25;;;;;;;11.87;7.80;;;23.50;99.90;;;;;;5010383;28;20198;-49
2022/06/22 07:27:59;;;;;;;12.63;6.67;;;23.60;99.90;;;;;;4998962;28;20274;-49
2022/06/22 07:30:32;;;;;;;8.93;5.80;;;23.50;99.90;;;;;;5008983;28;20266;-49
2022/06/22 07:33:02;;;;;;;15.03;7.10;;;23.50;99.90;;;;;;5011857;28;20223;-49
2022/06/22 07:35:36;;;;;;;15.17;7.40;;;23.60;99.90;;;;;;5003288;28;20210;-50
2022/06/22 07:38:08;;;;;;;13.37;5.60;;;23.70;99.90;;;;;;4999660;28;20775;-50
2022/06/22 07:40:38;;;;;;;7.70;5.07;;;23.80;99.90;;;;;;5010178;28;20211;-50
2022/06/22 07:43:14;;;;;;;9.67;4.30;;;23.90;99.90;;;;;;5020264;28;20641;-50
2022/06/22 07:45:41;;;;;;;14.63;5.53;;;23.70;99.90;;;;;;5003670;28;20257;-50
2022/06/22 07:48:15;;;;;;;8.33;5.83;;;23.70;99.90;;;;;;5008845;28;20218;-49
2022/06/22 07:50:48;;;;;;;9.17;4.67;;;23.60;99.90;;;;;;5013069;28;20721;-50
2022/06/22 07:53:19;;;;;;;8.27;4.43;;;23.50;99.90;;;;;;5013151;28;20299;-50
2022/06/22 07:55:50;;;;;;;6.77;4.13;;;23.40;99.90;;;;;;5012428;28;20195;-49
2022/06/22 07:58:28;;;;;;;10.10;4.60;;;23.30;99.90;;;;;;5011792;28;20206;-50
2022/06/22 08:01:00;;;;;;;6.03;4.03;;;23.30;99.90;;;;;;5005954;28;20219;-49
2022/06/22 08:03:35;;;;;;;7.07;4.17;;;23.20;99.90;;;;;;5002229;28;20716;-50
2022/06/22 08:06:06;;;;;;;8.10;5.50;;;23.10;99.90;;;;;;4994650;28;20584;-49
2022/06/22 08:08:37;;;;;;;9.70;5.93;;;23.00;99.90;;;;;;5002366;28;20669;-49
2022/06/22 08:11:12;;;;;;;6.32;4.95;;;22.90;99.90;;;;;;5001118;28;20458;-49
2022/06/22 08:13:46;;;;;;;7.90;5.57;;;22.70;99.90;;;;;;5007051;28;20668;-49
2022/06/22 08:16:21;;;;;;;9.90;6.57;;;22.60;99.90;;;;;;4997874;28;20206;-49
2022/06/22 08:18:48;;;;;;;14.50;6.70;;;22.50;99.90;;;;;;5010301;28;20234;-49
2022/06/22 08:21:20;;;;;;;6.17;5.57;;;22.30;99.90;;;;;;5007104;28;20215;-49
2022/06/22 08:23:47;;;;;;;11.63;6.90;;;22.30;99.90;;;;;;4992238;28;20196;-50
2022/06/22 08:26:19;;;;;;;15.10;7.40;;;22.20;99.90;;;;;;4992664;28;20199;-50
2022/06/22 08:28:49;;;;;;;14.97;6.97;;;22.20;99.90;;;;;;5007552;28;20219;-50
2022/06/22 08:31:16;;;;;;;14.37;6.47;;;22.20;99.90;;;;;;5006020;28;20211;-49
2022/06/22 08:33:47;;;;;;;12.57;6.20;;;22.10;99.90;;;;;;4995239;28;20204;-50
2022/06/22 08:36:19;;;;;;;18.17;8.53;;;22.10;99.90;;;;;;4996546;28;20262;-50
2022/06/22 08:38:53;;;;;;;13.03;6.23;;;22.00;99.90;;;;;;5000113;28;20771;-50
2022/06/22 08:41:36;;;;;;;16.50;4.90;;;21.90;99.90;;;;;;5007210;28;20230;-49
2022/06/22 08:44:14;;;;;;;16.90;6.00;;;21.80;99.90;;;;;;5006756;28;20580;-50
2022/06/22 08:47:06;;;;;;;13.77;5.47;;;21.60;99.90;;;;;;5001714;28;20200;-50
2022/06/22 08:49:50;;;;;;;11.43;5.20;;;21.70;99.90;;;;;;4996711;28;20220;-49
2022/06/22 08:52:37;;;;;;;14.60;5.77;;;21.60;99.90;;;;;;5008124;28;20661;-50
2022/06/22 08:55:25;;;;;;;11.00;5.63;;;21.60;99.90;;;;;;5002866;28;20268;-49
2022/06/22 08:58:08;;;;;;;11.50;6.00;;;21.60;99.90;;;;;;5004775;28;20278;-50
2022/06/22 09:00:41;;;;;;;18.23;6.20;;;21.70;99.90;;;;;;5004972;28;20301;-50
2022/06/22 09:03:33;;;;;;;10.70;5.70;;;21.70;99.90;;;;;;5002782;28;20762;-49
2022/06/22 09:06:25;;;;;;;10.30;6.53;;;21.80;99.90;;;;;;4980842;28;20250;-49
2022/06/22 09:09:49;;;;;;;17.20;6.17;;;21.80;99.90;;;;;;4993633;28;20314;-49
2022/06/22 09:12:26;;;;;;;14.07;6.47;;;21.80;99.90;;;;;;4909913;29;20214;-50
2022/06/22 09:15:16;;;;;;;14.23;5.57;;;21.80;99.90;;;;;;4993832;28;20203;-50
2022/06/22 09:18:16;;;;;;;12.87;5.43;;;21.70;99.90;;;;;;4996401;28;20239;-50
2022/06/22 09:21:04;;;;;;;15.60;7.20;;;21.70;99.90;;;;;;5007783;28;20223;-49
2022/06/22 09:23:41;;;;;;;15.20;5.43;;;21.60;99.90;;;;;;5011777;28;20226;-50
2022/06/22 09:26:17;;;;;;;12.33;5.60;;;21.70;99.90;;;;;;5010083;28;20207;-49
2022/06/22 09:28:49;;;;;;;11.90;4.90;;;21.60;99.90;;;;;;5004919;28;20643;-49
2022/06/22 09:32:01;;;;;;;9.93;5.10;;;21.60;99.90;;;;;;5007804;28;20613;-50
2022/06/22 09:34:55;;;;;;;17.17;6.07;;;21.70;99.90;;;;;;5008124;28;20207;-49
2022/06/22 09:37:50;;;;;;;10.03;5.90;;;21.70;99.90;;;;;;4998021;28;20207;-49
2022/06/22 09:40:26;;;;;;;10.83;5.13;;;21.60;99.90;;;;;;5000356;28;20230;-49
2022/06/22 09:43:22;;;;;;;7.20;5.30;;;21.70;99.90;;;;;;5007847;28;20231;-50
2022/06/22 09:46:00;;;;;;;10.00;6.20;;;21.70;99.90;;;;;;5004982;28;20672;-49
2022/06/22 09:48:57;;;;;;;9.30;5.07;;;21.80;99.90;;;;;;5002000;28;20203;-50
2022/06/22 09:51:43;;;;;;;9.83;5.50;;;21.90;99.90;;;;;;5009843;28;20257;-50
2022/06/22 09:57:57;;;;;;;15.13;7.23;;;22.10;99.90;;;;;;5003159;28;20207;-50
2022/06/22 10:00:31;;;;;;;9.23;5.03;;;22.20;99.90;;;;;;5001577;28;20712;-50
2022/06/22 10:03:28;;;;;;;11.47;5.60;;;22.40;99.90;;;;;;5003637;28;20584;-50
2022/06/22 10:06:35;;;;;;;13.00;6.17;;;22.40;99.90;;;;;;5009131;28;20282;-50
2022/06/22 10:09:27;;;;;;;15.33;9.13;;;22.60;99.90;;;;;;4999377;28;20228;-50
2022/06/22 10:12:19;;;;;;;17.93;8.00;;;22.80;99.90;;;;;;4996295;28;20200;-50
2022/06/22 10:15:12;;;;;;;11.87;6.47;;;23.20;99.90;;;;;;5004358;28;20199;-50
2022/06/22 10:18:12;;;;;;;15.63;8.23;;;23.60;99.90;;;;;;5006923;28;20203;-50
2022/06/22 10:20:48;;;;;;;17.30;8.33;;;23.80;99.90;;;;;;4997137;28;20613;-50
2022/06/22 10:23:31;;;;;;;15.03;7.23;;;23.90;99.90;;;;;;5000704;28;20677;-50
2022/06/22 10:26:15;;;;;;;11.70;7.40;;;24.20;99.90;;;;;;5007739;28;20207;-52
2022/06/22 10:28:59;;;;;;;17.27;7.87;;;24.20;99.90;;;;;;5001347;28;20301;-51
2022/06/22 10:31:38;;;;;;;14.27;6.37;;;24.30;99.90;;;;;;4995021;28;20200;-51
2022/06/22 10:34:47;;;;;;;12.93;6.33;;;24.30;99.90;;;;;;5001241;28;20200;-49
2022/06/22 10:37:47;;;;;;;17.87;6.43;;;24.40;99.90;;;;;;5004001;28;20203;-49
2022/06/22 10:46:12;;;;;;;15.40;6.37;;;24.40;99.90;;;;;;5006311;28;20206;-48
2022/06/22 10:49:11;;;;;;;13.30;7.53;;;24.10;99.90;;;;;;5004007;28;20708;-49
2022/06/22 10:52:05;;;;;;;13.77;6.67;;;23.90;99.90;;;;;;5000547;28;20200;-49
2022/06/22 10:54:55;;;;;;;12.80;6.68;;;23.60;99.90;;;;;;4992537;28;20545;-49
2022/06/22 10:57:47;;;;;;;8.47;5.20;;;23.20;99.90;;;;;;5002052;28;20707;-49
2022/06/22 11:00:23;;;;;;;8.63;5.00;;;22.90;99.90;;;;;;5001766;28;20219;-51
2022/06/22 11:03:41;;;;;;;11.90;6.83;;;22.70;99.90;;;;;;5004759;28;20203;-49
2022/06/22 11:06:41;;;;;;;6.93;5.37;;;22.60;99.90;;;;;;5008129;28;20678;-49
2022/06/22 11:09:21;;;;;;;11.43;6.30;;;22.70;99.90;;;;;;5003830;28;20227;-49
2022/06/22 11:12:05;;;;;;;10.90;7.70;;;22.80;99.90;;;;;;5004379;28;20199;-49
2022/06/22 11:15:07;;;;;;;12.73;7.63;;;22.60;99.90;;;;;;5005754;28;20207;-49
2022/06/22 11:18:01;;;;;;;12.33;6.30;;;22.60;99.90;;;;;;5005933;28;20779;-49
2022/06/22 11:20:51;;;;;;;7.73;4.43;;;22.50;99.90;;;;;;5004584;28;20231;-49
2022/06/22 11:23:31;;;;;;;12.43;5.63;;;22.50;99.90;;;;;;5005192;28;20208;-50
2022/06/22 11:32:36;;;;;;;14.67;5.93;;;22.60;99.90;;;;;;5023470;28;20591;-55
2022/06/22 11:35:37;;;;;;;15.47;6.03;;;22.70;99.90;;;;;;5029786;28;20249;-54
2022/06/22 11:38:21;;;;;;;13.63;7.07;;;22.70;99.90;;;;;;5010589;28;20222;-55
2022/06/22 11:41:03;;;;;;;10.33;5.80;;;22.60;99.90;;;;;;5012405;28;20219;-56
2022/06/22 11:44:11;;;;;;;12.00;6.50;;;22.60;99.90;;;;;;5011978;28;20222;-55
2022/06/22 11:46:42;;;;;;;21.13;6.57;;;22.70;99.90;;;;;;5007460;28;20230;-55
2022/06/22 11:49:41;;;;;;;16.70;5.63;;;23.00;99.90;;;;;;5009159;28;20226;-55
2022/06/22 11:52:40;;;;;;;15.10;5.97;;;23.40;99.90;;;;;;5011356;28;20231;-55
2022/06/22 11:55:22;;;;;;;19.47;6.77;;;23.60;99.90;;;;;;5009577;28;20211;-55
2022/06/22 11:58:16;;;;;;;14.07;5.57;;;23.60;99.90;;;;;;5011213;28;20199;-55
2022/06/22 12:00:52;;;;;;;20.03;6.93;;;23.90;99.90;;;;;;5004675;28;20232;-55
2022/06/22 12:03:50;;;;;;;16.80;7.30;;;24.20;99.90;;;;;;5004480;28;20202;-55
2022/06/22 12:06:36;;;;;;;14.57;6.73;;;24.30;99.90;;;;;;5010531;28;20824;-55
2022/06/22 12:09:19;;;;;;;13.23;7.70;;;24.30;99.90;;;;;;5009617;28;20199;-55
2022/06/22 12:11:59;;;;;;;14.10;7.40;;;24.30;99.90;;;;;;5009762;28;20567;-55
2022/06/22 12:17:35;;;;;;;10.67;7.00;;;24.20;99.90;;;;;;5005315;28;20226;-55
2022/06/22 12:20:15;;;;;;;11.10;5.83;;;24.10;99.90;;;;;;5002241;28;20223;-55
2022/06/22 12:22:53;;;;;;;17.43;5.80;;;24.10;99.90;;;;;;5000783;28;20640;-55
2022/06/22 12:25:47;;;;;;;17.07;6.37;;;24.20;99.90;;;;;;5002761;28;20207;-54
2022/06/22 12:28:28;;;;;;;17.73;5.60;;;24.30;99.90;;;;;;5005402;28;20799;-54
2022/06/22 12:31:05;;;;;;;10.70;4.77;;;24.40;99.90;;;;;;5008907;28;20199;-55
2022/06/22 12:33:36;;;;;;;12.30;4.73;;;24.40;99.90;;;;;;5002423;28;20210;-55
2022/06/22 12:36:09;;;;;;;15.77;6.53;;;24.50;99.90;;;;;;5002430;28;20227;-55
2022/06/22 12:38:39;;;;;;;12.97;5.23;;;24.40;99.90;;;;;;5003135;28;20290;-55
2022/06/22 12:41:27;;;;;;;18.20;6.07;;;24.40;99.90;;;;;;5000188;28;20306;-55
2022/06/22 12:44:16;;;;;;;19.10;5.43;;;24.80;99.90;;;;;;5001724;28;20199;-55
2022/06/22 12:47:02;;;;;;;9.97;5.53;;;24.90;99.90;;;;;;5005605;28;20219;-55
2022/06/22 12:49:49;;;;;;;13.50;6.30;;;24.50;99.90;;;;;;5012038;28;20198;-55
2022/06/22 12:52:22;;;;;;;10.37;6.77;;;24.40;99.90;;;;;;5009179;28;20194;-55
2022/06/22 12:54:56;;;;;;;23.90;7.07;;;24.70;99.90;;;;;;5004439;28;20207;-55
2022/06/22 12:57:32;;;;;;;12.27;6.93;;;24.80;99.90;;;;;;5004555;28;20779;-55
2022/06/22 13:00:05;;;;;;;13.23;5.17;;;24.80;99.90;;;;;;5010682;28;20206;-55
2022/06/22 13:02:36;;;;;;;17.57;5.50;;;24.90;99.90;;;;;;5009417;28;20222;-55
2022/06/22 13:05:06;;;;;;;12.97;5.47;;;24.80;99.90;;;;;;5011236;28;20209;-55
2022/06/22 13:07:40;;;;;;;17.23;6.20;;;24.60;99.90;;;;;;5011269;28;20708;-55
2022/06/22 13:10:08;;;;;;;12.40;4.57;;;24.30;99.90;;;;;;4993924;28;20211;-55
2022/06/22 13:12:40;;;;;;;15.57;4.87;;;24.00;99.90;;;;;;5008277;28;20214;-55
2022/06/22 13:15:13;;;;;;;6.63;4.10;;;23.90;99.90;;;;;;5010240;28;20208;-55
2022/06/22 13:17:48;;;;;;;15.50;5.57;;;23.60;99.90;;;;;;5010945;28;20619;-55
2022/06/22 13:20:40;;;;;;;20.40;5.47;;;23.30;99.90;;;;;;5010970;28;20302;-55
2022/06/22 13:23:19;;;;;;;12.17;4.83;;;23.20;99.90;;;;;;5009595;28;20207;-55
2022/06/22 13:25:56;;;;;;;11.03;4.87;;;23.20;99.90;;;;;;5012195;28;20230;-55
2022/06/22 13:28:32;;;;;;;11.30;4.67;;;23.20;99.90;;;;;;4997174;28;20219;-55
2022/06/22 13:31:03;;;;;;;19.00;5.10;;;23.20;99.90;;;;;;5009199;28;20249;-55
2022/06/22 13:33:38;;;;;;;12.30;4.77;;;23.30;99.90;;;;;;5009236;28;20203;-55
2022/06/22 13:36:11;;;;;;;18.60;5.37;;;23.30;99.90;;;;;;5009417;28;20227;-55
2022/06/22 13:39:10;;;;;;;10.90;4.83;;;23.40;99.90;;;;;;5010273;28;20199;-55
2022/06/22 13:42:01;;;;;;;13.20;4.97;;;23.50;99.90;;;;;;5010927;28;20218;-55
2022/06/22 13:44:47;;;;;;;17.70;5.47;;;23.70;99.90;;;;;;5001072;28;20247;-55
2022/06/22 13:47:41;;;;;;;14.17;5.37;;;24.00;99.90;;;;;;5006127;28;20235;-55
2022/06/22 13:50:38;;;;;;;18.33;5.67;;;24.30;99.90;;;;;;5009810;28;20199;-55
2022/06/22 13:53:12;;;;;;;14.93;5.67;;;24.60;99.90;;;;;;4985382;28;20570;-55
2022/06/22 13:55:52;;;;;;;13.67;5.53;;;24.80;99.90;;;;;;5007584;28;20234;-55
2022/06/22 13:58:25;;;;;;;14.40;5.90;;;24.80;99.90;;;;;;5011014;28;20528;-56
2022/06/22 14:01:02;;;;;;;16.50;5.17;;;24.70;99.90;;;;;;5010026;28;20238;-55
2022/06/22 14:03:37;;;;;;;8.07;6.07;;;24.70;99.90;;;;;;4996756;28;20203;-55
2022/06/22 14:06:12;;;;;;;13.63;5.47;;;24.90;99.90;;;;;;4991308;28;20680;-55
2022/06/22 14:08:57;;;;;;;14.40;5.00;;;25.10;99.90;;;;;;5006910;28;20206;-55
2022/06/22 14:11:31;;;;;;;15.17;4.80;;;25.30;99.90;;;;;;5009683;28;20216;-55
2022/06/22 14:14:03;;;;;;;7.10;4.73;;;25.30;99.90;;;;;;5010446;28;20202;-55